Time;durP1;ratioP1;P1;durP2;ratioP2;P2;SDS_P1;SDS_P2;PMS_P1;PMS_P2;Temp;Humidity;BMP_temperature;BMP_pressure;BME280_temperature;BME280_humidity;BME280_pressure;Samples;Min_cycle;Max_cycle;Signal;HPM_P1;HPM_P2
2022/08/21 00:01:06;;;;;;;4.90;2.17;;;18.10;58.50;;;;;;4968237;28;20089;-66
2022/08/21 00:03:32;;;;;;;6.35;3.28;;;18.10;58.50;;;;;;4976413;28;20038;-66
2022/08/21 00:05:58;;;;;;;4.00;2.53;;;18.10;58.50;;;;;;4984585;28;20034;-66
2022/08/21 00:08:24;;;;;;;6.03;2.35;;;18.10;58.50;;;;;;4980488;28;20043;-66
2022/08/21 00:10:50;;;;;;;3.25;2.33;;;18.10;58.50;;;;;;4983441;28;20046;-66
2022/08/21 00:13:18;;;;;;;5.18;2.67;;;18.10;58.60;;;;;;4978742;28;20041;-66
2022/08/21 00:15:44;;;;;;;6.00;2.45;;;18.10;58.60;;;;;;4988073;28;20559;-67
2022/08/21 00:18:10;;;;;;;6.35;2.25;;;18.10;58.70;;;;;;4978645;28;20038;-66
2022/08/21 00:20:37;;;;;;;4.78;2.60;;;18.00;58.70;;;;;;4979388;28;20045;-67
2022/08/21 00:23:03;;;;;;;4.03;2.25;;;18.00;58.70;;;;;;4958048;28;20606;-67
2022/08/21 00:25:29;;;;;;;6.40;2.95;;;18.00;58.70;;;;;;4977077;28;20129;-67
2022/08/21 00:27:56;;;;;;;4.35;2.45;;;18.00;58.70;;;;;;4974558;28;20494;-66
2022/08/21 00:30:23;;;;;;;7.03;3.00;;;18.00;58.70;;;;;;4986683;28;20125;-66
2022/08/21 00:32:49;;;;;;;4.43;2.58;;;18.00;58.70;;;;;;4994963;28;20049;-68
2022/08/21 00:35:18;;;;;;;5.22;2.70;;;18.00;58.70;;;;;;4986496;28;20045;-68
2022/08/21 00:37:44;;;;;;;5.88;2.20;;;18.00;58.80;;;;;;4990572;28;20050;-68
2022/08/21 00:40:13;;;;;;;4.03;2.25;;;18.00;58.70;;;;;;4982630;28;20031;-68
2022/08/21 00:42:39;;;;;;;4.25;2.25;;;18.00;58.80;;;;;;4976893;28;20470;-68
2022/08/21 00:45:07;;;;;;;3.60;2.20;;;18.00;58.70;;;;;;4982505;28;20126;-68
2022/08/21 00:47:33;;;;;;;3.95;2.20;;;18.00;58.80;;;;;;4978497;28;20046;-68
2022/08/21 00:49:59;;;;;;;4.50;2.80;;;18.00;58.70;;;;;;4977891;28;20118;-68
2022/08/21 00:52:31;;;;;;;4.13;2.20;;;18.00;58.60;;;;;;4979942;28;20138;-68
2022/08/21 00:54:58;;;;;;;4.93;2.55;;;18.00;58.60;;;;;;4989828;28;20049;-68
2022/08/21 00:57:30;;;;;;;4.97;2.10;;;18.00;58.60;;;;;;4993312;28;20462;-69
2022/08/21 00:59:59;;;;;;;8.00;2.53;;;18.00;58.60;;;;;;4992578;28;20042;-69
2022/08/21 01:02:25;;;;;;;3.90;2.20;;;17.90;58.50;;;;;;4978125;28;20086;-69
2022/08/21 01:04:51;;;;;;;3.53;2.17;;;17.90;58.50;;;;;;4984752;28;20039;-69
2022/08/21 01:07:18;;;;;;;5.40;2.53;;;17.90;58.60;;;;;;4992809;28;20053;-69
2022/08/21 01:09:46;;;;;;;3.70;2.60;;;17.90;58.60;;;;;;4986743;28;20035;-69
2022/08/21 01:12:13;;;;;;;5.03;2.30;;;17.80;58.70;;;;;;4979449;28;20654;-69
2022/08/21 01:14:42;;;;;;;4.45;2.58;;;17.80;58.70;;;;;;4985410;28;20038;-67
2022/08/21 01:17:09;;;;;;;3.95;2.40;;;17.80;58.70;;;;;;4992918;28;20050;-66
2022/08/21 01:19:35;;;;;;;5.43;2.42;;;17.80;58.70;;;;;;4978475;28;20486;-66
2022/08/21 01:22:02;;;;;;;3.78;2.85;;;17.80;58.80;;;;;;4979925;28;20050;-66
2022/08/21 01:24:28;;;;;;;5.30;3.30;;;17.80;58.80;;;;;;4987352;28;20034;-66
2022/08/21 01:26:54;;;;;;;6.35;3.03;;;17.80;58.90;;;;;;4990947;28;20040;-66
2022/08/21 01:29:35;;;;;;;7.03;3.30;;;17.70;58.90;;;;;;4992643;28;20045;-67
2022/08/21 01:32:09;;;;;;;5.15;3.22;;;17.70;58.90;;;;;;4977408;28;20114;-66
2022/08/21 01:34:36;;;;;;;7.13;3.00;;;17.70;58.90;;;;;;4988212;28;20047;-66
2022/08/21 01:37:03;;;;;;;5.22;3.03;;;17.70;58.90;;;;;;4977965;28;20038;-66
2022/08/21 01:39:29;;;;;;;5.22;2.65;;;17.60;58.90;;;;;;4975474;28;20128;-66
2022/08/21 01:41:55;;;;;;;4.25;2.60;;;17.60;59.00;;;;;;4985318;28;20178;-66
2022/08/21 01:44:22;;;;;;;4.80;2.78;;;17.60;59.00;;;;;;4977850;28;20543;-66
2022/08/21 01:46:48;;;;;;;6.82;3.63;;;17.60;59.10;;;;;;4980767;28;20141;-66
2022/08/21 01:49:15;;;;;;;3.25;2.30;;;17.60;59.10;;;;;;4984204;28;20073;-67
2022/08/21 01:51:41;;;;;;;5.82;2.90;;;17.50;59.10;;;;;;4992703;28;20101;-66
2022/08/21 01:54:07;;;;;;;4.07;2.80;;;17.50;59.20;;;;;;4981082;28;20174;-66
2022/08/21 01:56:53;;;;;;;5.47;3.72;;;17.50;59.20;;;;;;4985277;28;20105;-66
2022/08/21 01:59:19;;;;;;;5.03;3.50;;;17.50;59.30;;;;;;4984484;28;20386;-66
2022/08/21 02:01:45;;;;;;;4.75;3.47;;;17.50;59.40;;;;;;4982437;28;20034;-66
2022/08/21 02:04:11;;;;;;;8.02;5.28;;;17.40;59.40;;;;;;4981631;28;20037;-66
2022/08/21 02:06:37;;;;;;;8.48;6.13;;;17.40;59.60;;;;;;4985418;28;20122;-66
2022/08/21 02:09:05;;;;;;;7.07;4.35;;;17.40;60.00;;;;;;4982036;28;20050;-66
2022/08/21 02:11:32;;;;;;;7.97;5.90;;;17.30;60.10;;;;;;4990605;28;20390;-66
2022/08/21 02:13:57;;;;;;;8.95;5.55;;;17.30;60.30;;;;;;4975096;28;20041;-66
2022/08/21 02:16:23;;;;;;;8.35;5.47;;;17.20;60.60;;;;;;4977964;28;20043;-66
2022/08/21 02:18:49;;;;;;;9.07;6.50;;;17.20;60.60;;;;;;4977115;28;20069;-66
2022/08/21 02:21:15;;;;;;;7.05;4.60;;;17.10;60.60;;;;;;4977829;28;20070;-66
2022/08/21 02:23:40;;;;;;;5.57;3.55;;;17.10;60.80;;;;;;4977288;28;20090;-66
2022/08/21 02:26:08;;;;;;;8.27;4.90;;;17.00;60.70;;;;;;4982059;28;20688;-66
2022/08/21 02:28:34;;;;;;;5.97;4.47;;;17.00;60.80;;;;;;4975678;28;20039;-66
2022/08/21 02:31:01;;;;;;;6.55;3.58;;;16.90;60.80;;;;;;4975866;28;20133;-66
2022/08/21 02:33:27;;;;;;;6.47;4.18;;;16.90;60.80;;;;;;4989251;28;20039;-66
2022/08/21 02:35:54;;;;;;;6.20;3.40;;;16.90;60.80;;;;;;4979190;28;20137;-66
2022/08/21 02:38:24;;;;;;;5.50;3.58;;;16.90;60.80;;;;;;4976392;28;20039;-66
2022/08/21 02:40:50;;;;;;;4.70;3.58;;;16.90;60.80;;;;;;4975490;28;20046;-66
2022/08/21 02:43:18;;;;;;;5.32;3.53;;;16.90;60.80;;;;;;4983798;28;20088;-66
2022/08/21 02:45:44;;;;;;;6.82;3.80;;;16.90;60.70;;;;;;4991837;28;20047;-66
2022/08/21 02:48:14;;;;;;;7.45;4.95;;;16.90;60.80;;;;;;4989192;28;20042;-66
2022/08/21 02:50:47;;;;;;;5.05;3.70;;;16.90;60.80;;;;;;4984865;28;20049;-66
2022/08/21 02:53:16;;;;;;;6.57;4.95;;;16.90;60.80;;;;;;4979981;28;20049;-66
2022/08/21 02:55:43;;;;;;;5.78;3.75;;;16.80;60.80;;;;;;4976233;28;20439;-66
2022/08/21 02:58:09;;;;;;;5.38;4.03;;;16.90;60.90;;;;;;4976057;28;20051;-66
2022/08/21 03:00:36;;;;;;;8.23;4.28;;;16.80;60.80;;;;;;4984001;28;20367;-66
2022/08/21 03:03:03;;;;;;;8.00;5.70;;;16.80;60.90;;;;;;4980460;28;20577;-66
2022/08/21 03:05:31;;;;;;;5.00;3.67;;;16.80;61.00;;;;;;4976708;28;20050;-66
2022/08/21 03:07:58;;;;;;;5.20;4.38;;;16.80;61.10;;;;;;4983523;28;20054;-67
2022/08/21 03:10:24;;;;;;;6.63;4.68;;;16.80;61.10;;;;;;4992598;28;20034;-66
2022/08/21 03:12:51;;;;;;;7.00;5.25;;;16.80;61.20;;;;;;4988964;28;20038;-66
2022/08/21 03:15:19;;;;;;;7.53;6.68;;;16.80;61.30;;;;;;4989862;28;20034;-66
2022/08/21 03:17:46;;;;;;;8.60;5.38;;;16.80;61.40;;;;;;4982220;28;20089;-66
2022/08/21 03:20:14;;;;;;;8.32;6.65;;;16.70;61.40;;;;;;4974830;28;20053;-66
2022/08/21 03:22:40;;;;;;;8.70;6.88;;;16.70;61.50;;;;;;4982650;28;20038;-66
2022/08/21 03:25:06;;;;;;;6.57;4.75;;;16.70;61.70;;;;;;4978245;28;20031;-66
2022/08/21 03:27:33;;;;;;;7.53;5.25;;;16.60;61.70;;;;;;4977908;28;20498;-68
2022/08/21 03:30:00;;;;;;;9.45;7.18;;;16.60;62.20;;;;;;4973240;28;20121;-68
2022/08/21 03:32:26;;;;;;;8.77;5.13;;;16.60;62.00;;;;;;4976232;28;20057;-68
2022/08/21 03:34:52;;;;;;;6.43;5.03;;;16.50;62.20;;;;;;4974618;28;20054;-68
2022/08/21 03:37:18;;;;;;;8.23;5.47;;;16.50;62.20;;;;;;4989071;28;20034;-68
2022/08/21 03:39:44;;;;;;;6.40;4.55;;;16.40;62.20;;;;;;4989904;28;20053;-68
2022/08/21 03:42:11;;;;;;;5.47;3.47;;;16.40;62.30;;;;;;4982508;28;20085;-68
2022/08/21 03:44:37;;;;;;;4.78;4.25;;;16.40;62.30;;;;;;4974694;28;20101;-66
2022/08/21 03:47:03;;;;;;;6.15;5.45;;;16.40;62.30;;;;;;4977136;28;20034;-66
2022/08/21 03:49:29;;;;;;;4.85;3.10;;;16.40;62.40;;;;;;4988200;28;20089;-66
2022/08/21 03:51:55;;;;;;;4.82;3.30;;;16.40;62.30;;;;;;4988561;28;20692;-66
2022/08/21 03:54:21;;;;;;;5.28;3.67;;;16.40;62.30;;;;;;4985814;28;20084;-66
2022/08/21 03:56:47;;;;;;;6.15;3.50;;;16.30;62.20;;;;;;4986975;28;20066;-66
2022/08/21 03:59:13;;;;;;;5.05;4.18;;;16.40;62.30;;;;;;4979364;28;20479;-66
2022/08/21 04:01:39;;;;;;;5.35;4.15;;;16.40;62.20;;;;;;4976478;28;20047;-66
2022/08/21 04:04:05;;;;;;;6.90;4.68;;;16.40;62.30;;;;;;4983732;28;20042;-66
2022/08/21 04:06:32;;;;;;;6.45;3.85;;;16.40;62.30;;;;;;4990606;28;20034;-66
2022/08/21 04:08:57;;;;;;;6.68;3.80;;;16.40;62.30;;;;;;4981561;28;20434;-66
2022/08/21 04:11:23;;;;;;;5.95;3.38;;;16.40;62.30;;;;;;4979124;28;20050;-66
2022/08/21 04:13:49;;;;;;;6.85;5.00;;;16.40;62.30;;;;;;4982804;28;20121;-66
2022/08/21 04:16:15;;;;;;;5.13;3.97;;;16.40;62.30;;;;;;4989991;28;20030;-66
2022/08/21 04:18:41;;;;;;;5.25;3.70;;;16.40;62.40;;;;;;4983336;28;20046;-66
2022/08/21 04:21:09;;;;;;;7.78;5.57;;;16.40;62.40;;;;;;4976612;28;20044;-66
2022/08/21 04:23:35;;;;;;;6.60;2.85;;;16.40;62.50;;;;;;4985936;28;20058;-66
2022/08/21 04:26:01;;;;;;;6.25;3.03;;;16.40;62.50;;;;;;4980423;28;20406;-66
2022/08/21 04:28:27;;;;;;;6.68;3.95;;;16.40;62.30;;;;;;4975723;28;20043;-66
2022/08/21 04:30:54;;;;;;;8.75;4.95;;;16.40;62.30;;;;;;4981076;28;20126;-66
2022/08/21 04:33:21;;;;;;;6.90;4.10;;;16.40;62.40;;;;;;4977653;28;20610;-66
2022/08/21 04:35:47;;;;;;;6.35;3.15;;;16.40;62.40;;;;;;4976041;28;20043;-66
2022/08/21 04:38:13;;;;;;;4.60;3.40;;;16.40;62.40;;;;;;4976852;28;20474;-66
2022/08/21 04:40:38;;;;;;;3.47;2.45;;;16.40;62.30;;;;;;4974100;28;20042;-66
2022/08/21 04:43:10;;;;;;;6.72;4.03;;;16.40;62.30;;;;;;4983549;28;20046;-66
2022/08/21 04:45:42;;;;;;;6.82;3.88;;;16.40;62.40;;;;;;4973408;28;20114;-66
2022/08/21 04:48:10;;;;;;;9.50;4.68;;;16.40;62.50;;;;;;4979738;28;20045;-66
2022/08/21 04:50:35;;;;;;;6.13;3.70;;;16.40;62.70;;;;;;4972892;28;20118;-66
2022/08/21 04:53:01;;;;;;;7.13;3.83;;;16.40;62.70;;;;;;4982350;28;20138;-66
2022/08/21 04:55:28;;;;;;;8.50;4.75;;;16.40;62.90;;;;;;4974914;28;20035;-66
2022/08/21 04:57:55;;;;;;;8.63;4.95;;;16.40;63.10;;;;;;4978371;28;20078;-66
2022/08/21 05:00:24;;;;;;;6.95;3.83;;;16.40;63.30;;;;;;4984365;28;20042;-66
2022/08/21 05:02:54;;;;;;;6.90;4.20;;;16.40;63.40;;;;;;4984143;28;20509;-66
2022/08/21 05:05:20;;;;;;;8.55;5.30;;;16.30;63.70;;;;;;4975663;28;20039;-66
2022/08/21 05:07:46;;;;;;;5.78;3.97;;;16.40;64.00;;;;;;4978270;28;20065;-66
2022/08/21 05:10:13;;;;;;;8.82;4.63;;;16.40;64.10;;;;;;4966889;28;20061;-66
2022/08/21 05:12:41;;;;;;;5.82;3.95;;;16.40;64.00;;;;;;4984798;28;20061;-66
2022/08/21 05:15:08;;;;;;;7.78;4.55;;;16.40;63.90;;;;;;4981165;28;20027;-66
2022/08/21 05:17:33;;;;;;;6.35;3.42;;;16.50;64.10;;;;;;4982232;28;20061;-66
2022/08/21 05:19:59;;;;;;;8.38;4.28;;;16.50;64.10;;;;;;4984859;28;20038;-66
2022/08/21 05:22:25;;;;;;;6.72;4.30;;;16.60;64.10;;;;;;4990695;28;20047;-66
2022/08/21 05:24:52;;;;;;;9.55;4.90;;;16.60;64.10;;;;;;4978505;28;20134;-66
2022/08/21 05:27:18;;;;;;;5.97;3.60;;;16.60;64.20;;;;;;4978720;28;20039;-66
2022/08/21 05:29:43;;;;;;;7.78;3.58;;;16.60;64.20;;;;;;4986510;28;20100;-66
2022/08/21 05:32:13;;;;;;;9.13;4.40;;;16.60;64.10;;;;;;4978249;28;20058;-66
2022/08/21 05:34:39;;;;;;;7.93;4.00;;;16.70;64.30;;;;;;4990865;28;20054;-66
2022/08/21 05:37:05;;;;;;;7.55;4.43;;;16.70;64.40;;;;;;4979953;28;20030;-66
2022/08/21 05:39:31;;;;;;;6.40;3.08;;;16.70;64.60;;;;;;4989151;28;20038;-66
2022/08/21 05:41:57;;;;;;;6.85;3.75;;;16.70;64.60;;;;;;4988805;28;20053;-66
2022/08/21 05:44:23;;;;;;;8.73;4.43;;;16.70;64.70;;;;;;4981967;28;20050;-66
2022/08/21 05:46:48;;;;;;;8.93;4.65;;;16.70;65.00;;;;;;4977745;28;20074;-66
2022/08/21 05:49:14;;;;;;;7.45;4.38;;;16.80;65.20;;;;;;4989997;28;20409;-67
2022/08/21 05:51:41;;;;;;;7.30;3.83;;;16.80;65.20;;;;;;4979897;28;20038;-66
2022/08/21 05:54:07;;;;;;;6.13;4.00;;;16.80;65.40;;;;;;4977923;28;20112;-65
2022/08/21 05:56:33;;;;;;;7.65;4.20;;;16.80;65.60;;;;;;4976344;28;20542;-65
2022/08/21 05:58:59;;;;;;;6.38;3.80;;;16.90;66.20;;;;;;4982970;28;20037;-66
2022/08/21 06:01:25;;;;;;;9.70;4.43;;;17.10;66.80;;;;;;4982845;28;20410;-66
2022/08/21 06:03:51;;;;;;;8.50;3.47;;;17.30;67.10;;;;;;4987993;28;20050;-66
2022/08/21 06:06:16;;;;;;;10.43;4.10;;;17.70;66.80;;;;;;4976635;28;20070;-66
2022/08/21 06:08:42;;;;;;;9.23;3.28;;;18.10;66.30;;;;;;4977920;28;20038;-66
2022/08/21 06:11:09;;;;;;;8.05;3.80;;;18.60;65.50;;;;;;4982565;28;20117;-66
2022/08/21 06:13:36;;;;;;;7.80;3.58;;;19.10;64.50;;;;;;4976133;28;20046;-66
2022/08/21 06:16:15;;;;;;;7.20;3.45;;;19.60;63.20;;;;;;4982894;28;20128;-66
2022/08/21 06:18:42;;;;;;;6.93;3.20;;;20.20;61.50;;;;;;4987532;28;20514;-66
2022/08/21 06:21:08;;;;;;;7.95;3.80;;;20.60;60.40;;;;;;4988389;28;20044;-67
2022/08/21 06:23:35;;;;;;;8.18;3.58;;;21.00;59.20;;;;;;4975744;28;20031;-69
2022/08/21 06:26:05;;;;;;;6.38;3.60;;;21.30;58.60;;;;;;4990560;28;20049;-69
2022/08/21 06:28:31;;;;;;;9.20;2.97;;;21.60;57.80;;;;;;4975760;28;20438;-69
2022/08/21 06:30:57;;;;;;;8.60;2.90;;;21.90;57.50;;;;;;4991394;28;20145;-69
2022/08/21 06:33:23;;;;;;;7.72;3.25;;;22.20;57.20;;;;;;4987897;28;20493;-69
2022/08/21 06:35:49;;;;;;;9.10;3.78;;;22.50;56.60;;;;;;4984805;28;20042;-69
2022/08/21 06:38:15;;;;;;;10.93;3.85;;;22.80;55.80;;;;;;4982918;28;20047;-69
2022/08/21 06:40:41;;;;;;;6.47;2.63;;;23.10;54.70;;;;;;4978928;28;20030;-69
2022/08/21 06:43:12;;;;;;;7.57;2.70;;;23.30;54.10;;;;;;4960790;28;20046;-69
2022/08/21 06:45:38;;;;;;;6.57;2.83;;;23.70;53.60;;;;;;4980901;28;20054;-69
2022/08/21 06:48:05;;;;;;;6.80;2.70;;;23.90;53.00;;;;;;4979019;28;20649;-69
2022/08/21 06:50:31;;;;;;;6.90;2.90;;;24.30;52.10;;;;;;4980161;28;20097;-69
2022/08/21 06:53:11;;;;;;;7.78;3.10;;;24.60;51.30;;;;;;4990573;28;20038;-69
2022/08/21 06:55:39;;;;;;;8.48;2.58;;;25.00;50.90;;;;;;4987096;28;20048;-69
2022/08/21 06:58:06;;;;;;;10.27;3.25;;;25.20;49.80;;;;;;4978764;28;20134;-69
2022/08/21 07:00:32;;;;;;;5.95;2.70;;;25.40;49.20;;;;;;4974939;28;20043;-70
2022/08/21 07:02:58;;;;;;;6.93;2.40;;;25.70;48.70;;;;;;4975243;28;20049;-69
2022/08/21 07:05:28;;;;;;;5.63;2.10;;;25.90;48.60;;;;;;4966469;28;20113;-70
2022/08/21 07:07:54;;;;;;;8.20;2.58;;;26.10;47.60;;;;;;4946531;28;20046;-69
2022/08/21 07:10:20;;;;;;;8.57;2.80;;;26.30;47.20;;;;;;4973739;28;20047;-69
2022/08/21 07:12:46;;;;;;;5.85;2.15;;;26.50;46.80;;;;;;4989851;28;20057;-69
2022/08/21 07:15:11;;;;;;;5.63;2.42;;;26.60;46.40;;;;;;4977155;28;20039;-69
2022/08/21 07:17:37;;;;;;;6.00;2.67;;;26.70;46.40;;;;;;4993357;28;20448;-69
2022/08/21 07:20:05;;;;;;;5.53;2.42;;;26.90;46.30;;;;;;4994471;28;20497;-69
2022/08/21 07:22:31;;;;;;;7.22;3.00;;;27.10;45.80;;;;;;4980836;28;20049;-69
2022/08/21 07:24:56;;;;;;;6.00;2.67;;;27.20;45.30;;;;;;4975467;28;20034;-69
2022/08/21 07:27:22;;;;;;;6.78;2.85;;;27.40;45.20;;;;;;4974516;28;20497;-70
2022/08/21 07:29:48;;;;;;;8.40;2.40;;;27.60;44.80;;;;;;4974994;28;20047;-70
2022/08/21 07:32:14;;;;;;;7.03;2.25;;;27.70;44.80;;;;;;4981361;28;20061;-70
2022/08/21 07:34:40;;;;;;;5.15;2.35;;;27.90;44.30;;;;;;4981543;28;20039;-67
2022/08/21 07:37:06;;;;;;;4.82;2.00;;;28.00;43.80;;;;;;4963456;28;20082;-68
2022/08/21 07:39:32;;;;;;;6.82;2.35;;;28.10;43.70;;;;;;4972053;28;20081;-68
2022/08/21 07:41:58;;;;;;;7.28;2.38;;;28.20;43.40;;;;;;4975812;28;20034;-68
2022/08/21 07:44:23;;;;;;;6.18;1.80;;;28.20;43.40;;;;;;4973600;28;20038;-68
2022/08/21 07:46:49;;;;;;;5.97;1.85;;;28.30;43.20;;;;;;4976484;28;20493;-66
2022/08/21 07:49:15;;;;;;;4.82;1.70;;;28.40;42.70;;;;;;4993783;28;20441;-66
2022/08/21 07:51:40;;;;;;;5.07;1.35;;;28.40;42.20;;;;;;4990689;28;20070;-68
2022/08/21 07:54:06;;;;;;;4.30;1.52;;;28.50;41.80;;;;;;4974473;28;20042;-67
2022/08/21 07:56:32;;;;;;;6.40;1.77;;;28.50;41.70;;;;;;4974427;28;20402;-67
2022/08/21 07:58:57;;;;;;;3.75;1.73;;;28.50;41.40;;;;;;4991706;28;20121;-67
2022/08/21 08:01:24;;;;;;;6.20;1.83;;;28.60;41.40;;;;;;4993704;28;20050;-67
2022/08/21 08:03:50;;;;;;;5.28;1.70;;;28.60;41.30;;;;;;4975512;28;20490;-67
2022/08/21 08:06:18;;;;;;;6.78;1.92;;;28.60;41.30;;;;;;4981851;28;20054;-67
2022/08/21 08:08:44;;;;;;;7.80;2.55;;;28.60;41.40;;;;;;4988526;28;20050;-67
2022/08/21 08:11:11;;;;;;;4.78;1.60;;;28.60;41.60;;;;;;4993720;28;20113;-67
2022/08/21 08:13:41;;;;;;;6.93;1.73;;;28.60;41.40;;;;;;4985850;28;20494;-67
2022/08/21 08:16:07;;;;;;;7.10;2.20;;;28.70;41.50;;;;;;4973215;28;20105;-67
2022/08/21 08:18:33;;;;;;;7.25;2.58;;;28.80;41.50;;;;;;4974105;28;20054;-67
2022/08/21 08:20:59;;;;;;;3.70;1.17;;;28.80;41.60;;;;;;4974023;28;20066;-67
2022/08/21 08:23:25;;;;;;;5.47;1.73;;;28.80;41.50;;;;;;4960404;28;20045;-69
2022/08/21 08:25:51;;;;;;;5.13;2.17;;;28.90;41.70;;;;;;4999272;28;20043;-69
2022/08/21 08:28:16;;;;;;;6.57;2.17;;;28.90;41.90;;;;;;4982819;28;20054;-69
2022/08/21 08:30:42;;;;;;;5.90;2.10;;;28.90;41.90;;;;;;5006330;28;20132;-69
2022/08/21 08:33:09;;;;;;;5.10;1.60;;;29.00;41.80;;;;;;4997029;28;20039;-69
2022/08/21 08:35:36;;;;;;;6.40;2.25;;;29.00;41.80;;;;;;4974175;28;20049;-69
2022/08/21 08:38:01;;;;;;;8.05;1.95;;;29.10;41.90;;;;;;4981821;28;20062;-68
2022/08/21 08:40:47;;;;;;;8.93;2.20;;;29.10;42.00;;;;;;4973905;28;20051;-68
2022/08/21 08:43:14;;;;;;;6.47;1.67;;;29.20;41.80;;;;;;4997197;28;20062;-67
2022/08/21 08:45:44;;;;;;;7.03;2.00;;;29.30;41.90;;;;;;4987773;28;20043;-67
2022/08/21 08:48:14;;;;;;;8.32;2.28;;;29.30;42.10;;;;;;4999965;28;20057;-67
2022/08/21 08:50:45;;;;;;;5.53;1.83;;;29.40;41.90;;;;;;5015346;28;20049;-67
2022/08/21 08:53:20;;;;;;;6.72;2.20;;;29.40;42.10;;;;;;4986089;28;20390;-66
2022/08/21 08:55:46;;;;;;;10.13;1.98;;;29.50;42.40;;;;;;4991941;28;20078;-66
2022/08/21 08:58:23;;;;;;;6.15;2.33;;;29.60;42.70;;;;;;4979975;28;20070;-66
2022/08/21 09:00:51;;;;;;;8.65;2.55;;;29.70;42.50;;;;;;4977323;28;20117;-66
2022/08/21 09:03:17;;;;;;;7.68;2.60;;;29.80;42.20;;;;;;4987469;28;20104;-66
2022/08/21 09:05:58;;;;;;;7.07;2.05;;;29.80;42.00;;;;;;4979377;28;20074;-66
2022/08/21 09:08:43;;;;;;;4.80;2.17;;;29.90;41.90;;;;;;4983094;28;20121;-66
2022/08/21 09:11:21;;;;;;;7.47;2.00;;;29.90;42.00;;;;;;4986627;28;20522;-67
2022/08/21 09:13:56;;;;;;;6.88;2.17;;;30.00;42.10;;;;;;4985814;28;20074;-66
2022/08/21 09:16:39;;;;;;;6.32;2.08;;;30.00;42.10;;;;;;4978498;28;20486;-66
2022/08/21 09:19:30;;;;;;;10.38;2.15;;;30.00;41.80;;;;;;4979688;28;20036;-66
2022/08/21 09:22:28;;;;;;;8.77;2.17;;;29.90;41.90;;;;;;4980530;28;20051;-66
2022/08/21 09:25:14;;;;;;;7.65;1.92;;;29.80;42.20;;;;;;4987005;28;20058;-66
2022/08/21 09:27:40;;;;;;;6.32;1.83;;;29.90;42.60;;;;;;4973389;28;20058;-66
2022/08/21 09:30:07;;;;;;;4.55;1.65;;;29.80;42.10;;;;;;4974114;28;20050;-66
2022/08/21 09:32:34;;;;;;;6.07;2.00;;;29.90;42.20;;;;;;4987646;28;20050;-66
2022/08/21 09:35:06;;;;;;;8.50;2.13;;;30.00;42.50;;;;;;4992522;28;20410;-68
2022/08/21 09:37:44;;;;;;;6.82;2.40;;;30.00;42.50;;;;;;4987833;28;20133;-68
2022/08/21 09:40:30;;;;;;;7.57;1.60;;;30.00;42.30;;;;;;4991187;28;20411;-69
2022/08/21 09:43:04;;;;;;;7.20;2.33;;;30.10;42.60;;;;;;4988862;28;20038;-68
2022/08/21 09:45:30;;;;;;;6.90;1.58;;;30.10;42.70;;;;;;4991074;28;20633;-68
2022/08/21 09:47:55;;;;;;;6.50;2.47;;;30.20;42.90;;;;;;4989007;28;20050;-68
2022/08/21 09:50:24;;;;;;;5.80;1.98;;;30.30;42.40;;;;;;4987599;28;20061;-68
2022/08/21 09:52:59;;;;;;;6.47;1.85;;;30.40;42.10;;;;;;5005270;28;20543;-69
2022/08/21 09:58:17;;;;;;;6.40;2.30;;;30.60;41.90;;;;;;4987795;28;20046;-70
2022/08/21 10:00:43;;;;;;;6.55;1.80;;;30.70;42.20;;;;;;4989342;28;20049;-69
2022/08/21 10:03:12;;;;;;;6.97;2.55;;;30.70;42.10;;;;;;4991427;28;20050;-69
2022/08/21 10:05:39;;;;;;;9.82;2.55;;;30.70;41.50;;;;;;4988427;28;20038;-69
2022/08/21 10:08:15;;;;;;;6.70;2.10;;;30.80;41.80;;;;;;4989631;28;20125;-69
2022/08/21 10:10:41;;;;;;;7.00;2.47;;;30.80;41.50;;;;;;4991349;28;20053;-69
2022/08/21 10:13:09;;;;;;;7.63;1.80;;;30.70;41.40;;;;;;4988997;28;20608;-69
2022/08/21 10:15:52;;;;;;;6.20;1.90;;;30.70;41.20;;;;;;4977859;28;20051;-69
2022/08/21 10:18:39;;;;;;;6.03;1.70;;;30.80;41.50;;;;;;4977693;28;20109;-69
2022/08/21 10:21:22;;;;;;;8.98;2.55;;;30.80;41.50;;;;;;4976269;28;20039;-69
2022/08/21 10:24:12;;;;;;;6.97;2.22;;;30.70;41.30;;;;;;4982246;28;20138;-69
2022/08/21 10:26:48;;;;;;;5.65;2.17;;;30.70;41.40;;;;;;4993927;28;20050;-69
2022/08/21 10:29:46;;;;;;;8.73;2.40;;;30.60;40.70;;;;;;5002616;28;20056;-69
2022/08/21 10:32:14;;;;;;;4.50;1.40;;;30.60;41.30;;;;;;4985003;28;20058;-69
2022/08/21 10:34:49;;;;;;;5.30;1.90;;;30.50;41.00;;;;;;4984617;28;20086;-69
2022/08/21 10:37:24;;;;;;;6.28;1.42;;;30.50;41.10;;;;;;4976003;28;20058;-69
2022/08/21 10:39:55;;;;;;;4.32;1.40;;;30.50;40.90;;;;;;4984925;28;20627;-69
2022/08/21 10:42:30;;;;;;;5.20;1.90;;;30.40;40.50;;;;;;5013434;28;20378;-69
2022/08/21 10:45:36;;;;;;;5.03;1.60;;;30.30;41.00;;;;;;4975409;28;20042;-69
2022/08/21 10:48:09;;;;;;;4.88;1.60;;;30.20;41.00;;;;;;4981666;28;20125;-70
2022/08/21 10:50:50;;;;;;;6.32;1.75;;;30.10;41.00;;;;;;4992137;28;20096;-70
2022/08/21 10:53:36;;;;;;;7.60;1.90;;;30.10;41.20;;;;;;4993607;28;20117;-70
2022/08/21 10:56:26;;;;;;;5.55;1.85;;;30.00;41.80;;;;;;4976456;28;20355;-70
2022/08/21 10:59:23;;;;;;;6.47;1.83;;;29.90;41.40;;;;;;4975511;28;20045;-70
2022/08/21 11:02:08;;;;;;;8.00;2.60;;;29.90;41.60;;;;;;4974213;28;20447;-70
2022/08/21 11:04:41;;;;;;;6.95;1.70;;;29.90;41.40;;;;;;4974284;28;20039;-69
2022/08/21 11:07:31;;;;;;;6.22;1.42;;;29.80;41.50;;;;;;4991655;28;20065;-69
2022/08/21 11:10:01;;;;;;;4.78;1.60;;;29.80;41.70;;;;;;4974042;28;20497;-69
2022/08/21 11:13:08;;;;;;;5.28;1.65;;;29.80;41.70;;;;;;4973216;28;20047;-69
2022/08/21 11:15:38;;;;;;;5.97;1.63;;;29.80;41.80;;;;;;4977365;28;20053;-69
2022/08/21 11:18:19;;;;;;;5.20;1.92;;;29.70;41.80;;;;;;4987001;28;20050;-69
2022/08/21 11:20:56;;;;;;;4.53;1.30;;;29.70;41.80;;;;;;4981151;28;20045;-69
2022/08/21 11:23:33;;;;;;;6.78;1.88;;;29.60;41.80;;;;;;4976167;28;20510;-70
2022/08/21 11:26:05;;;;;;;4.95;1.77;;;29.50;41.80;;;;;;4981212;28;20390;-65
2022/08/21 11:28:42;;;;;;;5.22;1.48;;;29.40;41.90;;;;;;4987873;28;20157;-65
2022/08/21 11:31:19;;;;;;;6.22;2.10;;;29.40;42.00;;;;;;4989415;28;20058;-66
2022/08/21 11:33:54;;;;;;;4.82;1.80;;;29.30;42.00;;;;;;4988547;28;20550;-66
2022/08/21 11:36:38;;;;;;;5.95;1.95;;;29.20;42.10;;;;;;4987746;28;20144;-66
2022/08/21 11:39:16;;;;;;;;;;;29.10;42.20;;;;;;4989799;28;20039;-65
2022/08/21 11:41:56;;;;;;;6.80;2.20;;;29.00;42.60;;;;;;4989658;28;19972;-66
2022/08/21 11:44:43;;;;;;;6.50;2.08;;;29.00;42.60;;;;;;4988397;28;20034;-66
2022/08/21 11:47:19;;;;;;;5.50;2.00;;;28.90;42.60;;;;;;4990338;28;20038;-66
2022/08/21 11:50:06;;;;;;;7.50;2.03;;;28.80;42.70;;;;;;4985121;28;20042;-66
2022/08/21 11:52:44;;;;;;;5.63;2.38;;;28.70;42.50;;;;;;4988676;28;20047;-67
2022/08/21 11:55:15;;;;;;;6.43;1.83;;;28.60;42.50;;;;;;4989501;28;20069;-68
2022/08/21 11:57:53;;;;;;;7.32;1.60;;;28.50;42.50;;;;;;4987548;28;20046;-67
2022/08/21 12:00:35;;;;;;;6.18;1.88;;;28.40;42.70;;;;;;4987641;28;20070;-67
2022/08/21 12:03:21;;;;;;;4.68;1.50;;;28.40;42.90;;;;;;4985602;28;20047;-67
2022/08/21 12:06:01;;;;;;;7.10;1.95;;;28.30;43.20;;;;;;4987696;28;20046;-67
2022/08/21 12:08:34;;;;;;;4.40;2.20;;;28.30;43.30;;;;;;4989563;28;20045;-67
2022/08/21 12:11:19;;;;;;;6.18;1.95;;;28.30;43.60;;;;;;4987783;28;21318;-67
2022/08/21 12:14:04;;;;;;;5.75;1.85;;;28.20;43.80;;;;;;4988593;28;20470;-67
2022/08/21 12:16:38;;;;;;;6.38;1.70;;;28.20;43.60;;;;;;4989123;28;20081;-67
2022/08/21 12:19:12;;;;;;;5.18;1.60;;;28.10;43.60;;;;;;4987785;28;20045;-67
2022/08/21 12:22:06;;;;;;;6.75;2.13;;;28.10;43.70;;;;;;4987609;28;20034;-65
2022/08/21 12:24:40;;;;;;;;;;;28.10;43.50;;;;;;4991943;28;20107;-67
2022/08/21 12:27:41;;;;;;;6.60;1.77;;;28.10;43.40;;;;;;4989842;28;20001;-65
2022/08/21 12:30:27;;;;;;;6.43;2.13;;;28.00;43.40;;;;;;4985253;28;20046;-66
2022/08/21 12:33:06;;;;;;;5.93;1.55;;;28.00;43.80;;;;;;4975757;28;20082;-66
2022/08/21 12:35:43;;;;;;;9.52;2.80;;;28.00;43.70;;;;;;4991424;28;20042;-66
2022/08/21 12:38:22;;;;;;;5.85;2.05;;;28.10;43.50;;;;;;4992673;28;20121;-66
2022/08/21 12:40:53;;;;;;;4.20;1.40;;;28.10;43.10;;;;;;4992550;28;20073;-66
2022/08/21 12:43:32;;;;;;;6.40;1.88;;;28.20;42.90;;;;;;4993926;28;20105;-66
2022/08/21 12:46:03;;;;;;;6.32;1.70;;;28.20;41.90;;;;;;4991733;28;20073;-66
2022/08/21 12:48:36;;;;;;;4.18;1.75;;;28.20;42.10;;;;;;4991753;28;20113;-67
2022/08/21 12:51:24;;;;;;;5.57;1.52;;;28.30;42.10;;;;;;4977332;28;20043;-67
2022/08/21 12:53:57;;;;;;;5.05;2.00;;;28.30;41.90;;;;;;4983794;28;20078;-67
2022/08/21 12:56:29;;;;;;;6.32;1.73;;;28.30;41.60;;;;;;4990995;28;20046;-66
2022/08/21 12:59:04;;;;;;;6.15;1.70;;;28.30;41.90;;;;;;4982292;28;20506;-66
2022/08/21 13:01:47;;;;;;;7.70;1.98;;;28.30;41.80;;;;;;4984691;28;20054;-67
2022/08/21 13:04:17;;;;;;;5.83;1.77;;;28.30;42.20;;;;;;4995788;28;20038;-67
2022/08/21 13:06:51;;;;;;;6.43;1.95;;;28.40;41.90;;;;;;4999126;28;20035;-67